createdAt,value
2018-10-18T00:01:11.721Z,25.03
2018-10-18T00:03:47.630Z,23.53
2018-10-18T00:06:23.344Z,29.87
2018-10-18T00:08:59.353Z,26.93
2018-10-18T00:11:35.188Z,23.63
2018-10-18T00:14:10.998Z,32.40
2018-10-18T00:16:47.136Z,33.87
2018-10-18T00:19:22.881Z,34.67
2018-10-18T00:21:58.766Z,36.63
2018-10-18T00:24:34.867Z,28.30
2018-10-18T00:27:10.743Z,32.57
2018-10-18T00:29:46.640Z,25.13
2018-10-18T00:32:22.603Z,26.83
2018-10-18T00:34:58.452Z,32.10
2018-10-18T00:37:34.450Z,23.13
2018-10-18T00:40:11.650Z,32.13
2018-10-18T00:42:47.503Z,34.97
2018-10-18T00:45:23.296Z,34.03
2018-10-18T00:47:59.506Z,38.07
2018-10-18T00:50:35.568Z,31.17
2018-10-18T00:53:11.369Z,36.30
2018-10-18T00:55:47.362Z,38.60
2018-10-18T00:58:23.128Z,42.17
2018-10-18T01:00:58.850Z,39.10
2018-10-18T01:03:34.476Z,49.60
2018-10-18T01:06:10.253Z,37.37
2018-10-18T01:08:46.244Z,38.13
2018-10-18T01:11:22.064Z,38.63
2018-10-18T01:13:57.873Z,29.13
2018-10-18T01:16:33.876Z,35.97
2018-10-18T01:19:09.727Z,39.70
2018-10-18T01:21:45.585Z,35.23
2018-10-18T01:24:21.356Z,37.40
2018-10-18T01:26:57.324Z,29.57
2018-10-18T01:29:33.185Z,31.30
2018-10-18T01:32:09.122Z,32.40
2018-10-18T01:34:44.948Z,27.33
2018-10-18T01:37:20.964Z,23.30
2018-10-18T01:39:56.782Z,24.03
2018-10-18T01:42:33.039Z,25.23
2018-10-18T01:45:08.980Z,30.20
2018-10-18T01:47:44.789Z,28.93
2018-10-18T01:50:21.134Z,29.60
2018-10-18T01:52:57.109Z,26.37
2018-10-18T01:55:33.006Z,24.90
2018-10-18T01:58:08.988Z,34.33
2018-10-18T02:00:44.975Z,23.20
2018-10-18T02:03:20.763Z,20.47
2018-10-18T02:05:56.624Z,24.43
2018-10-18T02:08:32.586Z,37.67
2018-10-18T02:12:32.482Z,33.47
2018-10-18T02:15:10.573Z,37.17
2018-10-18T02:17:46.501Z,29.93
2018-10-18T02:20:22.446Z,29.13
2018-10-18T02:22:58.200Z,32.07
2018-10-18T02:25:34.056Z,32.77
2018-10-18T02:28:09.856Z,32.37
2018-10-18T02:30:45.862Z,27.27
2018-10-18T02:33:21.686Z,37.53
2018-10-18T02:35:57.478Z,26.80
2018-10-18T02:38:33.295Z,32.00
2018-10-18T02:41:09.066Z,26.53
2018-10-18T02:43:45.016Z,19.53
2018-10-18T02:46:21.230Z,25.53
2018-10-18T02:48:56.990Z,24.47
2018-10-18T02:51:32.918Z,33.57
2018-10-18T02:54:08.718Z,29.17
2018-10-18T02:56:44.597Z,34.47
2018-10-18T02:59:20.606Z,37.33
2018-10-18T03:01:56.554Z,39.63
2018-10-18T03:04:32.784Z,43.03
2018-10-18T03:07:08.897Z,27.07
2018-10-18T03:09:44.734Z,27.73
2018-10-18T03:12:20.743Z,32.77
2018-10-18T03:14:56.621Z,34.13
2018-10-18T03:17:32.423Z,29.63
2018-10-18T03:20:09.013Z,32.60
2018-10-18T03:22:44.846Z,35.90
2018-10-18T03:25:20.601Z,48.83
2018-10-18T03:27:56.560Z,32.80
2018-10-18T03:30:33.763Z,42.40
2018-10-18T03:33:09.726Z,34.17
2018-10-18T03:35:45.652Z,44.50
2018-10-18T03:38:21.546Z,47.40
2018-10-18T03:40:57.467Z,34.37
2018-10-18T03:43:33.386Z,42.90
2018-10-18T03:46:09.220Z,52.60
2018-10-18T03:48:45.115Z,68.53
2018-10-18T03:51:20.913Z,55.93
2018-10-18T03:53:56.925Z,54.37
2018-10-18T03:56:33.081Z,36.67
2018-10-18T03:59:09.108Z,43.50
2018-10-18T04:01:49.202Z,38.63
2018-10-18T04:04:29.484Z,40.37
2018-10-18T04:07:05.580Z,38.70
2018-10-18T04:09:41.392Z,37.10
2018-10-18T04:12:17.219Z,38.80
2018-10-18T04:14:53.238Z,55.63
2018-10-18T04:17:29.136Z,51.17
2018-10-18T04:20:05.888Z,159.40
2018-10-18T04:22:41.638Z,62.50
2018-10-18T04:25:17.494Z,44.10
2018-10-18T04:27:53.564Z,43.90
2018-10-18T04:30:29.646Z,42.57
2018-10-18T04:33:06.266Z,41.83
2018-10-18T04:35:42.299Z,47.33
2018-10-18T04:38:20.879Z,47.40
2018-10-18T04:40:57.663Z,53.87
2018-10-18T04:43:33.363Z,49.70
2018-10-18T04:46:09.302Z,66.97
2018-10-18T04:48:45.286Z,49.13
2018-10-18T04:51:21.964Z,55.67
2018-10-18T04:53:57.917Z,74.13
2018-10-18T04:56:33.792Z,38.73
2018-10-18T04:59:09.876Z,57.00
2018-10-18T05:01:46.010Z,49.03
2018-10-18T05:04:22.143Z,47.80
2018-10-18T05:06:58.457Z,63.43
2018-10-18T05:09:34.500Z,74.63
2018-10-18T05:12:10.564Z,63.17
2018-10-18T05:14:46.352Z,40.17
2018-10-18T05:17:26.681Z,72.60
2018-10-18T05:20:02.381Z,53.40
2018-10-18T05:22:38.390Z,123.37
2018-10-18T05:25:14.310Z,54.83
2018-10-18T05:27:50.370Z,68.50
2018-10-18T05:30:26.230Z,77.10
2018-10-18T05:33:02.272Z,46.97
2018-10-18T05:35:38.201Z,40.30
2018-10-18T05:38:14.533Z,58.23
2018-10-18T05:40:50.227Z,85.00
2018-10-18T05:43:26.086Z,73.13
2018-10-18T05:46:01.960Z,70.60
2018-10-18T05:48:37.868Z,56.73
2018-10-18T05:51:13.631Z,77.87
2018-10-18T05:53:49.714Z,87.90
2018-10-18T05:56:25.782Z,103.83
2018-10-18T05:59:01.646Z,63.47
2018-10-18T06:01:37.501Z,65.07
2018-10-18T06:04:13.400Z,45.77
2018-10-18T06:06:49.275Z,51.73
2018-10-18T06:09:31.065Z,62.50
2018-10-18T06:12:07.047Z,60.93
2018-10-18T06:14:43.075Z,60.90
2018-10-18T06:17:19.069Z,72.53
2018-10-18T06:19:54.982Z,67.73
2018-10-18T06:22:31.052Z,62.07
2018-10-18T06:25:07.986Z,70.07
2018-10-18T06:27:44.173Z,61.53
2018-10-18T06:30:20.092Z,56.10
2018-10-18T06:32:55.979Z,58.20
2018-10-18T06:35:32.057Z,54.33
2018-10-18T06:38:08.069Z,54.40
2018-10-18T06:40:44.024Z,45.87
2018-10-18T06:43:19.885Z,45.10
2018-10-18T06:45:56.152Z,46.80
2018-10-18T06:48:33.263Z,41.77
2018-10-18T06:51:09.662Z,35.13
2018-10-18T06:53:45.636Z,36.93
2018-10-18T06:56:21.584Z,44.67
2018-10-18T06:58:57.505Z,38.53
2018-10-18T07:01:33.630Z,41.70
2018-10-18T07:04:09.536Z,42.90
2018-10-18T07:06:45.720Z,46.37
2018-10-18T07:09:21.600Z,30.10
2018-10-18T07:11:57.641Z,28.53
2018-10-18T07:14:33.617Z,28.03
2018-10-18T07:17:09.513Z,26.83
2018-10-18T07:19:45.385Z,25.70
2018-10-18T07:22:21.394Z,29.67
2018-10-18T07:24:57.350Z,27.53
2018-10-18T07:27:33.278Z,29.60
2018-10-18T07:30:10.715Z,40.60
2018-10-18T07:32:46.823Z,31.60
2018-10-18T07:35:22.841Z,37.37
2018-10-18T07:38:00.034Z,43.60
2018-10-18T07:40:35.854Z,30.07
2018-10-18T07:43:11.852Z,37.73
2018-10-18T07:45:47.881Z,37.87
2018-10-18T07:48:23.950Z,37.40
2018-10-18T07:50:59.773Z,30.70
2018-10-18T07:53:35.716Z,32.77
2018-10-18T07:56:11.764Z,34.07
2018-10-18T07:58:47.684Z,31.60
2018-10-18T08:01:18.572Z,45.40
2018-10-18T08:03:49.519Z,31.83
2018-10-18T08:06:20.416Z,32.63
2018-10-18T08:08:51.356Z,30.17
2018-10-18T08:11:22.309Z,31.70
2018-10-18T08:13:53.348Z,34.97
2018-10-18T08:16:24.256Z,40.33
2018-10-18T08:18:56.207Z,35.73
2018-10-18T08:21:27.406Z,28.60
2018-10-18T08:23:59.737Z,33.17
2018-10-18T08:26:31.624Z,36.57
2018-10-18T08:29:02.983Z,36.10
2018-10-18T08:31:34.032Z,32.10
2018-10-18T08:34:05.954Z,37.27
2018-10-18T08:36:37.906Z,30.27
2018-10-18T08:39:10.841Z,34.20
2018-10-18T08:41:41.981Z,39.83
2018-10-18T08:44:13.363Z,27.63
2018-10-18T08:46:44.572Z,40.27
2018-10-18T08:49:18.342Z,37.90
2018-10-18T08:51:51.569Z,37.57
2018-10-18T08:54:22.386Z,37.40
2018-10-18T08:56:53.555Z,53.10
2018-10-18T08:59:25.621Z,34.83
2018-10-18T09:01:57.746Z,27.33
2018-10-18T09:04:28.737Z,48.60
2018-10-18T09:06:59.952Z,31.87
2018-10-18T09:09:31.674Z,40.87
2018-10-18T09:12:09.626Z,33.30
2018-10-18T09:14:40.893Z,54.10
2018-10-18T09:17:11.775Z,47.57
2018-10-18T09:19:43.631Z,38.93
2018-10-18T09:22:14.985Z,47.47
2018-10-18T09:24:46.399Z,37.90
2018-10-18T09:27:18.549Z,53.37
2018-10-18T09:30:02.000Z,37.67
2018-10-18T09:32:33.480Z,38.93
2018-10-18T09:35:05.159Z,43.17
2018-10-18T09:37:36.185Z,49.20
2018-10-18T09:40:08.794Z,57.63
2018-10-18T09:42:39.959Z,47.97
2018-10-18T09:45:12.372Z,59.60
2018-10-18T09:47:43.265Z,53.03
2018-10-18T09:50:14.750Z,43.70
2018-10-18T09:52:45.635Z,40.50
2018-10-18T09:55:19.565Z,42.37
2018-10-18T09:57:50.861Z,47.13
2018-10-18T10:00:38.879Z,44.37
2018-10-18T10:03:14.929Z,50.00
2018-10-18T10:05:48.696Z,55.30
2018-10-18T10:08:22.862Z,59.40
2018-10-18T10:10:57.536Z,57.90
2018-10-18T10:13:28.680Z,67.17
2018-10-18T10:16:00.327Z,67.77
2018-10-18T10:18:31.225Z,55.93
2018-10-18T10:21:02.164Z,62.63
2018-10-18T10:23:33.070Z,61.93
2018-10-18T10:26:04.348Z,60.13
2018-10-18T10:28:35.219Z,55.23
2018-10-18T10:31:07.130Z,67.93
2018-10-18T10:33:38.585Z,61.27
2018-10-18T10:36:09.603Z,62.93
2018-10-18T10:38:40.574Z,69.57
2018-10-18T10:41:18.274Z,63.23
2018-10-18T10:43:49.363Z,57.47
2018-10-18T10:46:20.376Z,63.87
2018-10-18T10:48:51.580Z,68.20
2018-10-18T10:51:22.643Z,60.70
2018-10-18T10:53:56.477Z,39.83
2018-10-18T10:56:27.987Z,51.93
2018-10-18T10:59:00.255Z,59.60
2018-10-18T11:01:31.674Z,51.47
2018-10-18T11:04:03.347Z,46.23
2018-10-18T11:06:36.260Z,46.83
2018-10-18T11:09:10.834Z,51.40
2018-10-18T11:11:43.180Z,54.07
2018-10-18T11:14:14.184Z,47.37
2018-10-18T11:16:45.728Z,51.93
2018-10-18T11:19:16.602Z,43.63
2018-10-18T11:21:47.581Z,41.67
2018-10-18T11:24:18.754Z,42.07
2018-10-18T11:26:49.840Z,48.33
2018-10-18T11:29:20.868Z,43.17
2018-10-18T11:31:52.146Z,58.00
2018-10-18T11:34:23.977Z,47.47
2018-10-18T11:36:55.351Z,45.93
2018-10-18T11:39:26.246Z,46.60
2018-10-18T11:41:57.195Z,38.07
2018-10-18T11:44:33.173Z,37.77
2018-10-18T11:47:04.116Z,60.53
2018-10-18T11:49:35.009Z,49.93
2018-10-18T11:52:17.545Z,39.70
2018-10-18T11:54:48.471Z,43.20
2018-10-18T11:57:19.455Z,54.23
2018-10-18T11:59:50.333Z,47.40
2018-10-18T12:02:21.289Z,40.63
2018-10-18T12:04:52.787Z,49.23
2018-10-18T12:07:23.792Z,55.43
2018-10-18T12:09:55.679Z,41.43
2018-10-18T12:12:27.719Z,45.63
2018-10-18T12:14:58.854Z,43.47
2018-10-18T12:17:30.753Z,39.73
2018-10-18T12:20:01.688Z,58.67
2018-10-18T12:22:32.961Z,55.03
2018-10-18T12:25:03.868Z,52.60
2018-10-18T12:27:35.347Z,60.23
2018-10-18T12:30:07.803Z,54.53
2018-10-18T12:32:41.458Z,55.63
2018-10-18T12:35:15.694Z,37.90
2018-10-18T12:37:48.339Z,49.50
2018-10-18T12:40:22.990Z,56.33
2018-10-18T12:42:54.208Z,54.50
2018-10-18T12:45:25.102Z,44.40
2018-10-18T12:47:56.073Z,47.03
2018-10-18T12:50:26.956Z,32.37
2018-10-18T12:52:57.989Z,38.40
2018-10-18T12:55:28.876Z,58.30
2018-10-18T12:57:59.865Z,46.00
2018-10-18T13:00:30.767Z,45.47
2018-10-18T13:03:01.691Z,36.70
2018-10-18T13:05:32.625Z,50.03
2018-10-18T13:09:28.239Z,48.03
2018-10-18T13:11:59.494Z,31.03
2018-10-18T13:14:31.167Z,44.77
2018-10-18T13:17:02.053Z,64.07
2018-10-18T13:19:33.011Z,51.50
2018-10-18T13:22:03.925Z,43.00
2018-10-18T13:24:34.873Z,49.83
2018-10-18T13:27:05.933Z,46.10
2018-10-18T13:29:36.948Z,37.80
2018-10-18T13:32:07.936Z,33.60
2018-10-18T13:34:40.036Z,36.30
2018-10-18T13:37:10.933Z,30.00
2018-10-18T13:39:41.898Z,37.50
2018-10-18T13:42:12.929Z,36.83
2018-10-18T13:44:43.992Z,45.37
2018-10-18T13:47:14.879Z,45.87
2018-10-18T13:49:45.807Z,44.60
2018-10-18T13:52:16.703Z,31.80
2018-10-18T13:54:47.905Z,44.47
2018-10-18T13:57:19.094Z,54.60
2018-10-18T14:00:00.956Z,39.67
2018-10-18T14:02:32.068Z,44.60
2018-10-18T14:05:03.051Z,39.60
2018-10-18T14:07:34.137Z,54.93
2018-10-18T14:10:05.195Z,44.77
2018-10-18T14:12:36.113Z,38.50
2018-10-18T14:15:07.780Z,39.17
2018-10-18T14:17:39.164Z,37.60
2018-10-18T14:20:10.605Z,53.53
2018-10-18T14:22:41.954Z,41.93
2018-10-18T14:25:12.924Z,47.27
2018-10-18T14:27:43.855Z,49.80
2018-10-18T14:30:14.956Z,39.47
2018-10-18T14:32:46.000Z,36.10
2018-10-18T14:35:17.463Z,37.13
2018-10-18T14:37:48.402Z,36.97
2018-10-18T14:40:19.332Z,60.90
2018-10-18T14:42:50.221Z,60.20
2018-10-18T14:45:21.327Z,44.50
2018-10-18T14:47:52.296Z,46.73
2018-10-18T14:50:23.556Z,41.17
2018-10-18T14:52:54.573Z,106.37
2018-10-18T14:55:25.812Z,120.83
2018-10-18T14:57:57.098Z,103.27
2018-10-18T15:00:28.112Z,95.37
2018-10-18T15:02:59.310Z,62.53
2018-10-18T15:05:30.258Z,55.20
2018-10-18T15:08:01.216Z,40.07
2018-10-18T15:10:32.329Z,37.47
2018-10-18T15:13:03.229Z,133.17
2018-10-18T15:15:34.230Z,66.37
2018-10-18T15:18:05.288Z,51.03
2018-10-18T15:20:38.842Z,44.93
2018-10-18T15:23:09.814Z,63.63
2018-10-18T15:25:41.231Z,59.23
2018-10-18T15:28:12.180Z,41.60
2018-10-18T15:30:43.193Z,42.67
2018-10-18T15:33:14.158Z,38.63
2018-10-18T15:35:45.369Z,52.23
2018-10-18T15:38:16.483Z,48.93
2018-10-18T15:40:47.837Z,54.93
2018-10-18T15:43:18.726Z,44.83
2018-10-18T15:45:49.783Z,56.80
2018-10-18T15:48:20.672Z,52.47
2018-10-18T15:50:51.636Z,37.83
2018-10-18T15:53:22.535Z,39.80
2018-10-18T15:55:53.583Z,40.63
2018-10-18T15:58:24.464Z,41.73
2018-10-18T16:00:55.469Z,38.70
2018-10-18T16:03:26.370Z,29.97
2018-10-18T16:05:57.978Z,31.33
2018-10-18T16:08:28.882Z,27.47
2018-10-18T16:10:59.901Z,36.20
2018-10-18T16:13:31.157Z,36.63
2018-10-18T16:16:02.210Z,27.23
2018-10-18T16:18:35.909Z,30.03
2018-10-18T16:21:06.989Z,31.20
2018-10-18T16:23:38.112Z,28.07
2018-10-18T16:26:09.226Z,28.07
2018-10-18T16:28:40.218Z,29.93
2018-10-18T16:31:11.269Z,21.77
2018-10-18T16:33:42.228Z,40.43
2018-10-18T16:36:13.412Z,42.13
2018-10-18T16:38:44.386Z,24.43
2018-10-18T16:41:15.547Z,35.30
2018-10-18T16:43:46.462Z,23.27
2018-10-18T16:46:17.559Z,31.87
2018-10-18T16:48:48.835Z,25.97
2018-10-18T16:51:19.806Z,31.90
2018-10-18T16:53:50.858Z,24.57
2018-10-18T16:56:22.580Z,30.32
2018-10-18T16:58:53.697Z,30.07
2018-10-18T17:01:25.170Z,39.63
2018-10-18T17:03:56.072Z,30.93
2018-10-18T17:06:27.102Z,27.87
2018-10-18T17:08:58.260Z,44.63
2018-10-18T17:11:29.411Z,41.70
2018-10-18T17:14:00.515Z,85.47
2018-10-18T17:16:31.784Z,45.67
2018-10-18T17:19:02.660Z,48.40
2018-10-18T17:21:34.596Z,70.40
2018-10-18T17:24:05.623Z,59.53
2018-10-18T17:26:36.967Z,25.40
2018-10-18T17:29:08.284Z,30.13
2018-10-18T17:31:39.355Z,27.80
2018-10-18T17:34:10.341Z,38.47
2018-10-18T17:36:41.430Z,30.80
2018-10-18T17:39:12.515Z,28.07
2018-10-18T17:41:43.461Z,28.67
2018-10-18T17:44:14.504Z,31.73
2018-10-18T17:46:45.691Z,41.10
2018-10-18T17:49:16.595Z,36.43
2018-10-18T17:51:47.545Z,31.50
2018-10-18T17:55:21.137Z,27.13
2018-10-18T17:57:52.279Z,43.53
2018-10-18T18:00:26.276Z,26.13
2018-10-18T18:02:57.315Z,32.83
2018-10-18T18:05:28.255Z,33.67
2018-10-18T18:07:59.331Z,38.80
2018-10-18T18:10:30.620Z,34.23
2018-10-18T18:13:01.894Z,31.20
2018-10-18T18:15:33.222Z,31.07
2018-10-18T18:18:04.615Z,26.27
2018-10-18T18:20:35.977Z,32.37
2018-10-18T18:23:07.660Z,45.73
2018-10-18T18:25:47.931Z,492.23
2018-10-18T18:28:24.433Z,467.60
2018-10-18T18:30:56.922Z,334.47
2018-10-18T18:33:29.582Z,289.27
2018-10-18T18:36:01.444Z,99.23
2018-10-18T18:38:38.604Z,76.93
2018-10-18T18:41:10.280Z,95.87
2018-10-18T18:43:44.709Z,58.87
2018-10-18T18:46:21.991Z,66.13
2018-10-18T18:48:56.426Z,53.47
2018-10-18T18:51:27.948Z,50.83
2018-10-18T18:53:59.445Z,49.63
2018-10-18T18:56:30.606Z,46.87
2018-10-18T18:59:01.829Z,48.57
2018-10-18T19:01:32.685Z,41.03
2018-10-18T19:04:03.645Z,42.20
2018-10-18T19:06:34.570Z,42.43
2018-10-18T19:09:09.706Z,44.03
2018-10-18T19:11:41.513Z,49.30
2018-10-18T19:14:12.436Z,56.47
2018-10-18T19:17:06.052Z,69.77
2018-10-18T19:19:38.951Z,80.40
2018-10-18T19:22:09.918Z,87.13
2018-10-18T19:24:41.805Z,93.23
2018-10-18T19:27:13.784Z,88.33
2018-10-18T19:29:44.735Z,76.70
2018-10-18T19:32:17.637Z,53.17
2018-10-18T19:34:48.816Z,38.30
2018-10-18T19:37:20.016Z,37.17
2018-10-18T19:40:00.911Z,33.70
2018-10-18T19:42:32.808Z,44.87
2018-10-18T19:45:09.784Z,39.97
2018-10-18T19:47:41.060Z,37.17
2018-10-18T19:50:12.021Z,35.93
2018-10-18T19:52:43.242Z,45.73
2018-10-18T19:55:14.311Z,48.20
2018-10-18T19:57:45.232Z,190.77
2018-10-18T20:00:21.536Z,72.10
2018-10-18T20:02:57.600Z,44.63
2018-10-18T20:05:33.576Z,46.80
2018-10-18T20:08:09.606Z,40.17
2018-10-18T20:10:45.598Z,49.43
2018-10-18T20:13:21.363Z,40.07
2018-10-18T20:15:57.102Z,40.53
2018-10-18T20:18:33.014Z,37.93
2018-10-18T20:21:09.521Z,37.83
2018-10-18T20:23:45.472Z,36.03
2018-10-18T20:26:21.622Z,42.87
2018-10-18T20:28:57.336Z,41.90
2018-10-18T20:31:33.429Z,28.03
2018-10-18T20:35:33.328Z,48.80
2018-10-18T20:38:11.882Z,43.27
2018-10-18T20:40:47.725Z,41.10
2018-10-18T20:43:23.686Z,37.07
2018-10-18T20:46:00.547Z,46.50
2018-10-18T20:48:36.767Z,34.27
2018-10-18T20:51:12.758Z,44.30
2018-10-18T20:53:48.830Z,47.13
2018-10-18T20:56:24.718Z,47.57
2018-10-18T20:59:00.526Z,25.33
2018-10-18T21:01:36.302Z,30.77
2018-10-18T21:04:12.313Z,36.80
2018-10-18T21:06:48.235Z,31.90
2018-10-18T21:09:24.128Z,26.93
2018-10-18T21:12:00.044Z,38.67
2018-10-18T21:14:36.191Z,38.43
2018-10-18T21:17:12.193Z,39.87
2018-10-18T21:19:48.353Z,41.00
2018-10-18T21:22:24.359Z,38.47
2018-10-18T21:25:00.257Z,34.77
2018-10-18T21:27:36.131Z,37.83
2018-10-18T21:30:12.320Z,35.17
2018-10-18T21:32:48.494Z,36.63
2018-10-18T21:35:24.498Z,30.90
2018-10-18T21:38:00.642Z,25.53
2018-10-18T21:40:36.467Z,36.40
2018-10-18T21:43:12.286Z,26.47
2018-10-18T21:45:48.292Z,31.83
2018-10-18T21:48:24.289Z,40.57
2018-10-18T21:51:00.192Z,31.60
2018-10-18T21:53:36.271Z,25.40
2018-10-18T21:56:12.235Z,33.30
2018-10-18T21:58:48.088Z,40.87
2018-10-18T22:01:24.109Z,40.53
2018-10-18T22:04:00.000Z,34.30
2018-10-18T22:06:36.240Z,27.10
2018-10-18T22:09:12.091Z,36.20
2018-10-18T22:11:48.107Z,33.07
2018-10-18T22:14:23.984Z,28.23
2018-10-18T22:17:00.395Z,39.03
2018-10-18T22:19:36.178Z,26.47
2018-10-18T22:22:12.069Z,34.60
2018-10-18T22:24:47.980Z,33.93
2018-10-18T22:27:23.950Z,24.60
2018-10-18T22:29:59.761Z,31.40
2018-10-18T22:32:35.630Z,24.40
2018-10-18T22:35:11.754Z,26.03
2018-10-18T22:37:47.807Z,23.23
2018-10-18T22:40:23.705Z,31.40
2018-10-18T22:42:59.929Z,32.50
2018-10-18T22:45:35.796Z,29.83
2018-10-18T22:48:11.656Z,31.73
2018-10-18T22:50:47.388Z,23.67
2018-10-18T22:53:23.220Z,25.83
2018-10-18T22:55:58.968Z,25.33
2018-10-18T22:58:34.885Z,30.60
2018-10-18T23:01:10.654Z,25.60
2018-10-18T23:03:46.554Z,20.80
2018-10-18T23:06:22.424Z,30.17
2018-10-18T23:08:58.345Z,29.27
2018-10-18T23:11:34.157Z,34.20
2018-10-18T23:14:10.820Z,28.23
2018-10-18T23:16:46.662Z,34.37
2018-10-18T23:19:22.608Z,36.20
2018-10-18T23:21:58.400Z,28.47
2018-10-18T23:24:35.549Z,29.20
2018-10-18T23:27:10.649Z,32.03
2018-10-18T23:29:46.662Z,33.03
2018-10-18T23:32:22.469Z,26.53
2018-10-18T23:34:58.371Z,27.03
2018-10-18T23:37:34.347Z,25.30
2018-10-18T23:40:10.238Z,27.57
2018-10-18T23:42:45.949Z,21.03
2018-10-18T23:45:22.804Z,29.77
2018-10-18T23:47:58.639Z,28.90
2018-10-18T23:50:34.481Z,27.13
2018-10-18T23:53:10.402Z,27.40
2018-10-18T23:55:46.505Z,30.57
2018-10-18T23:58:22.343Z,27.97
